sensor_id;sensor_type;location;lat;lon;timestamp;P1;durP1;ratioP1;P2;durP2;ratioP2
37203;SDS011;23098;48.054;10.636;2023-04-25T00:00:21;3.65;;;2.80;;
37203;SDS011;23098;48.054;10.636;2023-04-25T00:02:46;4.18;;;3.15;;
37203;SDS011;23098;48.054;10.636;2023-04-25T00:05:12;5.10;;;3.03;;
37203;SDS011;23098;48.054;10.636;2023-04-25T00:07:40;4.28;;;3.05;;
37203;SDS011;23098;48.054;10.636;2023-04-25T00:10:07;4.05;;;2.90;;
37203;SDS011;23098;48.054;10.636;2023-04-25T00:12:33;6.20;;;3.15;;
37203;SDS011;23098;48.054;10.636;2023-04-25T00:14:59;4.65;;;3.47;;
37203;SDS011;23098;48.054;10.636;2023-04-25T00:17:24;11.45;;;4.82;;
37203;SDS011;23098;48.054;10.636;2023-04-25T00:19:51;6.55;;;3.47;;
37203;SDS011;23098;48.054;10.636;2023-04-25T00:22:17;6.13;;;2.92;;
37203;SDS011;23098;48.054;10.636;2023-04-25T00:24:43;3.90;;;3.05;;
37203;SDS011;23098;48.054;10.636;2023-04-25T00:27:08;4.72;;;3.20;;
37203;SDS011;23098;48.054;10.636;2023-04-25T00:29:34;4.78;;;3.10;;
37203;SDS011;23098;48.054;10.636;2023-04-25T00:31:59;5.35;;;3.40;;
37203;SDS011;23098;48.054;10.636;2023-04-25T00:34:25;4.35;;;3.05;;
37203;SDS011;23098;48.054;10.636;2023-04-25T00:36:51;4.55;;;2.83;;
37203;SDS011;23098;48.054;10.636;2023-04-25T00:39:16;4.85;;;2.92;;
37203;SDS011;23098;48.054;10.636;2023-04-25T00:41:42;4.70;;;3.10;;
37203;SDS011;23098;48.054;10.636;2023-04-25T00:44:09;4.13;;;3.05;;
37203;SDS011;23098;48.054;10.636;2023-04-25T00:46:36;4.93;;;3.13;;
37203;SDS011;23098;48.054;10.636;2023-04-25T00:49:03;5.38;;;3.10;;
37203;SDS011;23098;48.054;10.636;2023-04-25T00:51:29;4.70;;;3.42;;
37203;SDS011;23098;48.054;10.636;2023-04-25T00:53:55;3.80;;;3.10;;
37203;SDS011;23098;48.054;10.636;2023-04-25T00:56:23;3.65;;;2.75;;
37203;SDS011;23098;48.054;10.636;2023-04-25T00:58:48;4.10;;;3.17;;
37203;SDS011;23098;48.054;10.636;2023-04-25T01:01:15;7.32;;;2.80;;
37203;SDS011;23098;48.054;10.636;2023-04-25T01:03:41;6.13;;;3.05;;
37203;SDS011;23098;48.054;10.636;2023-04-25T01:06:08;5.60;;;3.20;;
37203;SDS011;23098;48.054;10.636;2023-04-25T01:08:34;5.60;;;3.35;;
37203;SDS011;23098;48.054;10.636;2023-04-25T01:11:02;6.95;;;3.30;;
37203;SDS011;23098;48.054;10.636;2023-04-25T01:13:27;4.15;;;3.28;;
37203;SDS011;23098;48.054;10.636;2023-04-25T01:15:53;5.15;;;3.03;;
37203;SDS011;23098;48.054;10.636;2023-04-25T01:18:19;5.70;;;3.13;;
37203;SDS011;23098;48.054;10.636;2023-04-25T01:20:45;4.80;;;3.08;;
37203;SDS011;23098;48.054;10.636;2023-04-25T01:23:13;5.00;;;3.65;;
37203;SDS011;23098;48.054;10.636;2023-04-25T01:25:39;6.15;;;2.67;;
37203;SDS011;23098;48.054;10.636;2023-04-25T01:28:05;5.82;;;3.33;;
37203;SDS011;23098;48.054;10.636;2023-04-25T01:30:31;9.02;;;2.97;;
37203;SDS011;23098;48.054;10.636;2023-04-25T01:32:56;6.13;;;2.95;;
37203;SDS011;23098;48.054;10.636;2023-04-25T01:35:23;5.40;;;2.80;;
37203;SDS011;23098;48.054;10.636;2023-04-25T01:37:50;7.78;;;2.92;;
37203;SDS011;23098;48.054;10.636;2023-04-25T01:40:16;4.68;;;2.90;;
37203;SDS011;23098;48.054;10.636;2023-04-25T01:42:45;4.63;;;3.17;;
37203;SDS011;23098;48.054;10.636;2023-04-25T01:45:11;4.53;;;3.10;;
37203;SDS011;23098;48.054;10.636;2023-04-25T01:47:38;5.35;;;3.17;;
37203;SDS011;23098;48.054;10.636;2023-04-25T01:50:05;3.95;;;2.33;;
37203;SDS011;23098;48.054;10.636;2023-04-25T01:52:32;4.07;;;2.55;;
37203;SDS011;23098;48.054;10.636;2023-04-25T01:54:59;2.42;;;1.98;;
37203;SDS011;23098;48.054;10.636;2023-04-25T01:57:25;1.95;;;1.60;;
37203;SDS011;23098;48.054;10.636;2023-04-25T01:59:51;5.00;;;2.13;;
37203;SDS011;23098;48.054;10.636;2023-04-25T02:02:24;4.05;;;2.22;;
37203;SDS011;23098;48.054;10.636;2023-04-25T02:04:49;5.60;;;1.63;;
37203;SDS011;23098;48.054;10.636;2023-04-25T02:07:15;3.42;;;2.33;;
37203;SDS011;23098;48.054;10.636;2023-04-25T02:09:40;4.22;;;2.28;;
37203;SDS011;23098;48.054;10.636;2023-04-25T02:12:07;4.68;;;2.60;;
37203;SDS011;23098;48.054;10.636;2023-04-25T02:14:34;5.03;;;2.70;;
37203;SDS011;23098;48.054;10.636;2023-04-25T02:17:00;4.10;;;2.03;;
37203;SDS011;23098;48.054;10.636;2023-04-25T02:19:25;4.40;;;2.38;;
37203;SDS011;23098;48.054;10.636;2023-04-25T02:21:51;3.55;;;1.80;;
37203;SDS011;23098;48.054;10.636;2023-04-25T02:24:16;3.22;;;1.92;;
37203;SDS011;23098;48.054;10.636;2023-04-25T02:26:42;4.05;;;1.92;;
37203;SDS011;23098;48.054;10.636;2023-04-25T02:29:08;3.08;;;2.00;;
37203;SDS011;23098;48.054;10.636;2023-04-25T02:31:35;4.20;;;2.00;;
37203;SDS011;23098;48.054;10.636;2023-04-25T02:34:00;2.30;;;1.77;;
37203;SDS011;23098;48.054;10.636;2023-04-25T02:36:26;4.15;;;2.10;;
37203;SDS011;23098;48.054;10.636;2023-04-25T02:38:52;5.05;;;2.20;;
37203;SDS011;23098;48.054;10.636;2023-04-25T02:41:18;3.80;;;2.10;;
37203;SDS011;23098;48.054;10.636;2023-04-25T02:43:43;3.05;;;2.20;;
37203;SDS011;23098;48.054;10.636;2023-04-25T02:46:09;2.50;;;2.00;;
37203;SDS011;23098;48.054;10.636;2023-04-25T02:48:34;3.20;;;2.03;;
37203;SDS011;23098;48.054;10.636;2023-04-25T02:51:00;4.88;;;2.22;;
37203;SDS011;23098;48.054;10.636;2023-04-25T02:53:25;4.15;;;2.58;;
37203;SDS011;23098;48.054;10.636;2023-04-25T02:55:51;3.38;;;2.38;;
37203;SDS011;23098;48.054;10.636;2023-04-25T02:58:17;4.68;;;2.42;;
37203;SDS011;23098;48.054;10.636;2023-04-25T03:00:43;3.65;;;2.38;;
37203;SDS011;23098;48.054;10.636;2023-04-25T03:03:08;4.28;;;2.60;;
37203;SDS011;23098;48.054;10.636;2023-04-25T03:05:34;3.25;;;2.35;;
37203;SDS011;23098;48.054;10.636;2023-04-25T03:08:00;4.85;;;2.63;;
37203;SDS011;23098;48.054;10.636;2023-04-25T03:10:25;4.82;;;2.55;;
37203;SDS011;23098;48.054;10.636;2023-04-25T03:12:51;2.90;;;2.20;;
37203;SDS011;23098;48.054;10.636;2023-04-25T03:15:16;3.63;;;2.47;;
37203;SDS011;23098;48.054;10.636;2023-04-25T03:17:42;7.10;;;2.30;;
37203;SDS011;23098;48.054;10.636;2023-04-25T03:20:08;4.45;;;2.60;;
37203;SDS011;23098;48.054;10.636;2023-04-25T03:22:34;4.03;;;2.30;;
37203;SDS011;23098;48.054;10.636;2023-04-25T03:24:59;4.45;;;2.70;;
37203;SDS011;23098;48.054;10.636;2023-04-25T03:27:25;4.57;;;2.50;;
37203;SDS011;23098;48.054;10.636;2023-04-25T03:29:50;5.00;;;2.75;;
37203;SDS011;23098;48.054;10.636;2023-04-25T03:32:16;5.30;;;2.60;;
37203;SDS011;23098;48.054;10.636;2023-04-25T03:34:41;5.13;;;3.05;;
37203;SDS011;23098;48.054;10.636;2023-04-25T03:37:07;5.88;;;2.90;;
37203;SDS011;23098;48.054;10.636;2023-04-25T03:39:32;3.80;;;3.10;;
37203;SDS011;23098;48.054;10.636;2023-04-25T03:41:58;3.33;;;2.80;;
37203;SDS011;23098;48.054;10.636;2023-04-25T03:44:23;4.43;;;3.10;;
37203;SDS011;23098;48.054;10.636;2023-04-25T03:46:49;4.30;;;3.03;;
37203;SDS011;23098;48.054;10.636;2023-04-25T03:49:15;4.72;;;2.90;;
37203;SDS011;23098;48.054;10.636;2023-04-25T03:51:41;4.70;;;2.78;;
37203;SDS011;23098;48.054;10.636;2023-04-25T03:54:07;6.80;;;3.15;;
37203;SDS011;23098;48.054;10.636;2023-04-25T03:56:32;5.85;;;3.08;;
37203;SDS011;23098;48.054;10.636;2023-04-25T03:58:58;4.68;;;3.40;;
37203;SDS011;23098;48.054;10.636;2023-04-25T04:01:23;4.38;;;3.10;;
37203;SDS011;23098;48.054;10.636;2023-04-25T04:03:50;4.82;;;3.42;;
37203;SDS011;23098;48.054;10.636;2023-04-25T04:06:16;4.38;;;3.28;;
37203;SDS011;23098;48.054;10.636;2023-04-25T04:08:41;5.05;;;3.30;;
37203;SDS011;23098;48.054;10.636;2023-04-25T04:11:07;7.57;;;3.30;;
37203;SDS011;23098;48.054;10.636;2023-04-25T04:13:33;5.53;;;3.40;;
37203;SDS011;23098;48.054;10.636;2023-04-25T04:15:58;6.32;;;3.63;;
37203;SDS011;23098;48.054;10.636;2023-04-25T04:18:24;6.40;;;3.33;;
37203;SDS011;23098;48.054;10.636;2023-04-25T04:20:49;4.63;;;3.63;;
37203;SDS011;23098;48.054;10.636;2023-04-25T04:23:15;5.88;;;4.18;;
37203;SDS011;23098;48.054;10.636;2023-04-25T04:25:41;7.88;;;4.65;;
37203;SDS011;23098;48.054;10.636;2023-04-25T04:28:06;7.70;;;4.30;;
37203;SDS011;23098;48.054;10.636;2023-04-25T04:30:32;8.32;;;4.38;;
37203;SDS011;23098;48.054;10.636;2023-04-25T04:33:01;7.53;;;4.35;;
37203;SDS011;23098;48.054;10.636;2023-04-25T04:35:27;13.38;;;7.70;;
37203;SDS011;23098;48.054;10.636;2023-04-25T04:37:53;9.32;;;4.50;;
37203;SDS011;23098;48.054;10.636;2023-04-25T04:40:19;7.35;;;4.57;;
37203;SDS011;23098;48.054;10.636;2023-04-25T04:42:45;9.88;;;4.93;;
37203;SDS011;23098;48.054;10.636;2023-04-25T04:45:11;7.75;;;5.38;;
37203;SDS011;23098;48.054;10.636;2023-04-25T04:47:37;10.05;;;5.18;;
37203;SDS011;23098;48.054;10.636;2023-04-25T04:50:04;7.40;;;4.47;;
37203;SDS011;23098;48.054;10.636;2023-04-25T04:52:34;6.88;;;4.40;;
37203;SDS011;23098;48.054;10.636;2023-04-25T04:55:00;7.82;;;4.25;;
37203;SDS011;23098;48.054;10.636;2023-04-25T04:57:27;6.72;;;4.60;;
37203;SDS011;23098;48.054;10.636;2023-04-25T04:59:53;7.05;;;4.05;;
37203;SDS011;23098;48.054;10.636;2023-04-25T05:02:19;5.55;;;4.07;;
37203;SDS011;23098;48.054;10.636;2023-04-25T05:04:44;7.03;;;3.78;;
37203;SDS011;23098;48.054;10.636;2023-04-25T05:07:10;7.07;;;4.18;;
37203;SDS011;23098;48.054;10.636;2023-04-25T05:09:36;9.40;;;3.95;;
37203;SDS011;23098;48.054;10.636;2023-04-25T05:12:02;6.35;;;3.88;;
37203;SDS011;23098;48.054;10.636;2023-04-25T05:14:27;7.15;;;3.60;;
37203;SDS011;23098;48.054;10.636;2023-04-25T05:16:53;8.90;;;4.15;;
37203;SDS011;23098;48.054;10.636;2023-04-25T05:19:18;9.18;;;3.88;;
37203;SDS011;23098;48.054;10.636;2023-04-25T05:21:44;6.38;;;3.85;;
37203;SDS011;23098;48.054;10.636;2023-04-25T05:24:10;6.90;;;3.65;;
37203;SDS011;23098;48.054;10.636;2023-04-25T05:26:36;7.38;;;3.83;;
37203;SDS011;23098;48.054;10.636;2023-04-25T05:29:02;8.02;;;3.33;;
37203;SDS011;23098;48.054;10.636;2023-04-25T05:31:28;6.93;;;3.60;;
37203;SDS011;23098;48.054;10.636;2023-04-25T05:33:53;6.18;;;3.80;;
37203;SDS011;23098;48.054;10.636;2023-04-25T05:36:19;9.68;;;3.78;;
37203;SDS011;23098;48.054;10.636;2023-04-25T05:38:44;7.50;;;3.58;;
37203;SDS011;23098;48.054;10.636;2023-04-25T05:41:10;5.20;;;2.97;;
37203;SDS011;23098;48.054;10.636;2023-04-25T05:43:35;4.97;;;3.10;;
37203;SDS011;23098;48.054;10.636;2023-04-25T05:46:01;7.57;;;2.95;;
37203;SDS011;23098;48.054;10.636;2023-04-25T05:48:27;4.93;;;3.30;;
37203;SDS011;23098;48.054;10.636;2023-04-25T05:50:53;5.95;;;2.80;;
37203;SDS011;23098;48.054;10.636;2023-04-25T05:53:19;3.78;;;2.83;;
37203;SDS011;23098;48.054;10.636;2023-04-25T05:55:45;4.80;;;2.20;;
37203;SDS011;23098;48.054;10.636;2023-04-25T05:58:11;6.25;;;2.30;;
37203;SDS011;23098;48.054;10.636;2023-04-25T06:00:37;2.90;;;2.17;;
37203;SDS011;23098;48.054;10.636;2023-04-25T06:03:03;8.70;;;3.30;;
37203;SDS011;23098;48.054;10.636;2023-04-25T06:05:31;5.00;;;2.67;;
37203;SDS011;23098;48.054;10.636;2023-04-25T06:08:02;6.75;;;2.95;;
37203;SDS011;23098;48.054;10.636;2023-04-25T06:10:29;3.78;;;2.78;;
37203;SDS011;23098;48.054;10.636;2023-04-25T06:12:55;5.07;;;2.80;;
37203;SDS011;23098;48.054;10.636;2023-04-25T06:15:20;4.22;;;2.45;;
37203;SDS011;23098;48.054;10.636;2023-04-25T06:17:46;5.40;;;2.30;;
37203;SDS011;23098;48.054;10.636;2023-04-25T06:20:11;4.90;;;2.80;;
37203;SDS011;23098;48.054;10.636;2023-04-25T06:22:37;3.88;;;2.03;;
37203;SDS011;23098;48.054;10.636;2023-04-25T06:25:03;5.07;;;2.10;;
37203;SDS011;23098;48.054;10.636;2023-04-25T06:27:29;5.10;;;1.88;;
37203;SDS011;23098;48.054;10.636;2023-04-25T06:29:55;6.28;;;2.40;;
37203;SDS011;23098;48.054;10.636;2023-04-25T06:32:20;5.70;;;2.08;;
37203;SDS011;23098;48.054;10.636;2023-04-25T06:34:46;4.10;;;2.17;;
37203;SDS011;23098;48.054;10.636;2023-04-25T06:37:11;7.25;;;2.28;;
37203;SDS011;23098;48.054;10.636;2023-04-25T06:39:37;2.92;;;1.75;;
37203;SDS011;23098;48.054;10.636;2023-04-25T06:42:03;5.68;;;2.00;;
37203;SDS011;23098;48.054;10.636;2023-04-25T06:44:29;4.30;;;1.85;;
37203;SDS011;23098;48.054;10.636;2023-04-25T06:46:55;4.53;;;2.40;;
37203;SDS011;23098;48.054;10.636;2023-04-25T06:49:22;4.32;;;2.15;;
37203;SDS011;23098;48.054;10.636;2023-04-25T06:51:47;3.13;;;2.53;;
37203;SDS011;23098;48.054;10.636;2023-04-25T06:54:13;5.32;;;2.50;;
37203;SDS011;23098;48.054;10.636;2023-04-25T06:56:38;4.68;;;2.47;;
37203;SDS011;23098;48.054;10.636;2023-04-25T06:59:05;8.88;;;2.45;;
37203;SDS011;23098;48.054;10.636;2023-04-25T07:01:34;5.32;;;2.70;;
37203;SDS011;23098;48.054;10.636;2023-04-25T07:04:03;4.50;;;2.35;;
37203;SDS011;23098;48.054;10.636;2023-04-25T07:06:31;4.80;;;2.58;;
37203;SDS011;23098;48.054;10.636;2023-04-25T07:08:57;3.40;;;2.13;;
37203;SDS011;23098;48.054;10.636;2023-04-25T07:11:22;7.82;;;2.38;;
37203;SDS011;23098;48.054;10.636;2023-04-25T07:13:49;4.45;;;2.15;;
37203;SDS011;23098;48.054;10.636;2023-04-25T07:16:36;3.20;;;2.10;;
37203;SDS011;23098;48.054;10.636;2023-04-25T07:19:04;8.60;;;2.50;;
37203;SDS011;23098;48.054;10.636;2023-04-25T07:21:29;2.08;;;1.77;;
37203;SDS011;23098;48.054;10.636;2023-04-25T07:23:58;3.42;;;2.40;;
37203;SDS011;23098;48.054;10.636;2023-04-25T07:26:25;3.95;;;1.63;;
37203;SDS011;23098;48.054;10.636;2023-04-25T07:28:50;2.40;;;2.10;;
37203;SDS011;23098;48.054;10.636;2023-04-25T07:31:17;3.30;;;1.90;;
37203;SDS011;23098;48.054;10.636;2023-04-25T07:33:44;3.95;;;2.10;;
37203;SDS011;23098;48.054;10.636;2023-04-25T07:36:14;5.20;;;2.40;;
37203;SDS011;23098;48.054;10.636;2023-04-25T07:38:40;3.67;;;1.90;;
37203;SDS011;23098;48.054;10.636;2023-04-25T07:41:07;3.47;;;2.13;;
37203;SDS011;23098;48.054;10.636;2023-04-25T07:43:34;4.05;;;2.08;;
37203;SDS011;23098;48.054;10.636;2023-04-25T07:46:00;5.65;;;2.00;;
37203;SDS011;23098;48.054;10.636;2023-04-25T07:50:58;3.95;;;1.80;;
37203;SDS011;23098;48.054;10.636;2023-04-25T07:53:23;5.10;;;1.90;;
37203;SDS011;23098;48.054;10.636;2023-04-25T07:55:49;4.80;;;1.90;;
37203;SDS011;23098;48.054;10.636;2023-04-25T07:58:15;4.22;;;1.90;;
37203;SDS011;23098;48.054;10.636;2023-04-25T08:00:46;2.92;;;1.80;;
37203;SDS011;23098;48.054;10.636;2023-04-25T08:03:13;3.80;;;1.77;;
37203;SDS011;23098;48.054;10.636;2023-04-25T08:05:38;3.47;;;1.63;;
37203;SDS011;23098;48.054;10.636;2023-04-25T08:08:04;5.03;;;1.63;;
37203;SDS011;23098;48.054;10.636;2023-04-25T08:10:31;3.53;;;1.60;;
37203;SDS011;23098;48.054;10.636;2023-04-25T08:12:57;4.90;;;1.50;;
37203;SDS011;23098;48.054;10.636;2023-04-25T08:15:25;4.38;;;2.10;;
37203;SDS011;23098;48.054;10.636;2023-04-25T08:17:51;2.95;;;1.65;;
37203;SDS011;23098;48.054;10.636;2023-04-25T08:20:17;3.35;;;2.00;;
37203;SDS011;23098;48.054;10.636;2023-04-25T08:22:42;3.45;;;1.77;;
37203;SDS011;23098;48.054;10.636;2023-04-25T08:25:08;3.97;;;1.85;;
37203;SDS011;23098;48.054;10.636;2023-04-25T08:27:34;4.03;;;1.38;;
37203;SDS011;23098;48.054;10.636;2023-04-25T08:29:59;3.00;;;1.65;;
37203;SDS011;23098;48.054;10.636;2023-04-25T08:32:26;2.42;;;1.40;;
37203;SDS011;23098;48.054;10.636;2023-04-25T08:34:52;3.00;;;1.65;;
37203;SDS011;23098;48.054;10.636;2023-04-25T08:37:20;3.67;;;1.40;;
37203;SDS011;23098;48.054;10.636;2023-04-25T08:39:46;2.55;;;1.55;;
37203;SDS011;23098;48.054;10.636;2023-04-25T08:42:13;4.57;;;1.60;;
37203;SDS011;23098;48.054;10.636;2023-04-25T08:44:40;4.38;;;1.55;;
37203;SDS011;23098;48.054;10.636;2023-04-25T08:47:05;3.03;;;1.52;;
37203;SDS011;23098;48.054;10.636;2023-04-25T08:49:32;1.50;;;0.80;;
37203;SDS011;23098;48.054;10.636;2023-04-25T08:52:03;4.85;;;1.90;;
37203;SDS011;23098;48.054;10.636;2023-04-25T08:54:31;2.38;;;1.40;;
37203;SDS011;23098;48.054;10.636;2023-04-25T08:56:59;2.58;;;1.50;;
37203;SDS011;23098;48.054;10.636;2023-04-25T09:01:55;3.25;;;1.65;;
37203;SDS011;23098;48.054;10.636;2023-04-25T09:04:20;1.92;;;1.05;;
37203;SDS011;23098;48.054;10.636;2023-04-25T09:06:46;2.80;;;1.48;;
37203;SDS011;23098;48.054;10.636;2023-04-25T09:09:12;1.80;;;1.30;;
37203;SDS011;23098;48.054;10.636;2023-04-25T09:11:38;3.83;;;1.73;;
37203;SDS011;23098;48.054;10.636;2023-04-25T09:14:20;4.90;;;1.50;;
37203;SDS011;23098;48.054;10.636;2023-04-25T09:19:32;2.25;;;1.33;;
37203;SDS011;23098;48.054;10.636;2023-04-25T09:22:01;4.05;;;1.58;;
37203;SDS011;23098;48.054;10.636;2023-04-25T09:27:27;2.50;;;1.38;;
37203;SDS011;23098;48.054;10.636;2023-04-25T09:29:57;2.58;;;1.77;;
37203;SDS011;23098;48.054;10.636;2023-04-25T09:32:25;4.03;;;1.60;;
37203;SDS011;23098;48.054;10.636;2023-04-25T09:34:51;2.63;;;1.52;;
37203;SDS011;23098;48.054;10.636;2023-04-25T09:37:21;3.45;;;1.63;;
37203;SDS011;23098;48.054;10.636;2023-04-25T09:39:58;2.15;;;1.70;;
37203;SDS011;23098;48.054;10.636;2023-04-25T09:42:27;2.72;;;1.70;;
37203;SDS011;23098;48.054;10.636;2023-04-25T09:44:54;3.67;;;1.50;;
37203;SDS011;23098;48.054;10.636;2023-04-25T09:47:22;2.25;;;1.63;;
37203;SDS011;23098;48.054;10.636;2023-04-25T09:49:49;2.45;;;1.65;;
37203;SDS011;23098;48.054;10.636;2023-04-25T09:52:17;2.13;;;1.60;;
37203;SDS011;23098;48.054;10.636;2023-04-25T09:54:44;2.75;;;1.70;;
37203;SDS011;23098;48.054;10.636;2023-04-25T09:57:18;3.08;;;1.70;;
37203;SDS011;23098;48.054;10.636;2023-04-25T09:59:53;4.30;;;2.20;;
37203;SDS011;23098;48.054;10.636;2023-04-25T10:02:27;1.15;;;0.90;;
37203;SDS011;23098;48.054;10.636;2023-04-25T10:04:54;2.03;;;1.20;;
37203;SDS011;23098;48.054;10.636;2023-04-25T10:07:29;2.72;;;1.48;;
37203;SDS011;23098;48.054;10.636;2023-04-25T10:09:59;2.47;;;1.80;;
37203;SDS011;23098;48.054;10.636;2023-04-25T10:12:28;1.00;;;0.88;;
37203;SDS011;23098;48.054;10.636;2023-04-25T10:14:54;2.95;;;1.27;;
37203;SDS011;23098;48.054;10.636;2023-04-25T10:17:20;2.70;;;1.95;;
37203;SDS011;23098;48.054;10.636;2023-04-25T10:19:47;3.13;;;1.60;;
37203;SDS011;23098;48.054;10.636;2023-04-25T10:22:14;2.33;;;1.73;;
37203;SDS011;23098;48.054;10.636;2023-04-25T10:24:54;1.73;;;1.17;;
37203;SDS011;23098;48.054;10.636;2023-04-25T10:27:21;4.60;;;1.20;;
37203;SDS011;23098;48.054;10.636;2023-04-25T10:29:52;3.05;;;0.90;;
37203;SDS011;23098;48.054;10.636;2023-04-25T10:32:26;1.00;;;0.90;;
37203;SDS011;23098;48.054;10.636;2023-04-25T10:34:51;1.10;;;1.00;;
37203;SDS011;23098;48.054;10.636;2023-04-25T10:37:17;1.52;;;1.00;;
37203;SDS011;23098;48.054;10.636;2023-04-25T10:39:47;3.88;;;0.90;;
37203;SDS011;23098;48.054;10.636;2023-04-25T10:42:13;2.60;;;1.17;;
37203;SDS011;23098;48.054;10.636;2023-04-25T10:44:38;1.10;;;1.00;;
37203;SDS011;23098;48.054;10.636;2023-04-25T10:47:06;1.58;;;1.20;;
37203;SDS011;23098;48.054;10.636;2023-04-25T10:49:42;1.58;;;1.27;;
37203;SDS011;23098;48.054;10.636;2023-04-25T10:54:42;2.88;;;1.27;;
37203;SDS011;23098;48.054;10.636;2023-04-25T11:00:15;1.30;;;1.20;;
37203;SDS011;23098;48.054;10.636;2023-04-25T11:03:06;2.95;;;1.48;;
37203;SDS011;23098;48.054;10.636;2023-04-25T11:05:36;1.70;;;1.27;;
37203;SDS011;23098;48.054;10.636;2023-04-25T11:08:07;2.47;;;1.58;;
37203;SDS011;23098;48.054;10.636;2023-04-25T11:10:48;2.35;;;1.52;;
37203;SDS011;23098;48.054;10.636;2023-04-25T11:13:14;3.78;;;1.40;;
37203;SDS011;23098;48.054;10.636;2023-04-25T11:15:41;2.15;;;1.60;;
37203;SDS011;23098;48.054;10.636;2023-04-25T11:18:06;1.75;;;1.42;;
37203;SDS011;23098;48.054;10.636;2023-04-25T11:20:32;2.50;;;1.30;;
37203;SDS011;23098;48.054;10.636;2023-04-25T11:22:58;1.38;;;1.00;;
37203;SDS011;23098;48.054;10.636;2023-04-25T11:25:25;2.20;;;1.10;;
37203;SDS011;23098;48.054;10.636;2023-04-25T11:27:55;1.33;;;0.90;;
37203;SDS011;23098;48.054;10.636;2023-04-25T11:30:25;1.10;;;1.00;;
37203;SDS011;23098;48.054;10.636;2023-04-25T11:32:52;1.33;;;1.13;;
37203;SDS011;23098;48.054;10.636;2023-04-25T11:35:19;2.72;;;1.00;;
37203;SDS011;23098;48.054;10.636;2023-04-25T11:37:45;1.75;;;1.35;;
37203;SDS011;23098;48.054;10.636;2023-04-25T11:40:12;1.20;;;0.88;;
37203;SDS011;23098;48.054;10.636;2023-04-25T11:42:38;1.38;;;1.10;;
37203;SDS011;23098;48.054;10.636;2023-04-25T11:45:08;1.08;;;0.80;;
37203;SDS011;23098;48.054;10.636;2023-04-25T11:47:35;1.85;;;1.45;;
37203;SDS011;23098;48.054;10.636;2023-04-25T11:50:02;1.67;;;1.10;;
37203;SDS011;23098;48.054;10.636;2023-04-25T11:52:39;1.88;;;0.93;;
37203;SDS011;23098;48.054;10.636;2023-04-25T11:55:06;1.15;;;0.90;;
37203;SDS011;23098;48.054;10.636;2023-04-25T11:57:33;1.50;;;1.00;;
37203;SDS011;23098;48.054;10.636;2023-04-25T12:02:54;1.17;;;0.90;;
37203;SDS011;23098;48.054;10.636;2023-04-25T12:05:26;1.00;;;0.90;;
37203;SDS011;23098;48.054;10.636;2023-04-25T12:07:55;1.58;;;0.95;;
37203;SDS011;23098;48.054;10.636;2023-04-25T12:10:21;1.95;;;1.55;;
37203;SDS011;23098;48.054;10.636;2023-04-25T12:12:50;3.42;;;2.22;;
37203;SDS011;23098;48.054;10.636;2023-04-25T12:15:17;1.85;;;1.33;;
37203;SDS011;23098;48.054;10.636;2023-04-25T12:17:50;2.15;;;1.48;;
37203;SDS011;23098;48.054;10.636;2023-04-25T12:20:18;1.23;;;0.63;;
37203;SDS011;23098;48.054;10.636;2023-04-25T12:22:47;1.02;;;0.80;;
37203;SDS011;23098;48.054;10.636;2023-04-25T12:25:33;5.88;;;3.17;;
37203;SDS011;23098;48.054;10.636;2023-04-25T12:28:19;0.75;;;0.65;;
37203;SDS011;23098;48.054;10.636;2023-04-25T12:31:19;0.55;;;0.55;;
37203;SDS011;23098;48.054;10.636;2023-04-25T12:33:40;1.88;;;1.10;;
37203;SDS011;23098;48.054;10.636;2023-04-25T12:36:07;0.70;;;0.65;;
37203;SDS011;23098;48.054;10.636;2023-04-25T12:38:40;1.88;;;1.30;;
37203;SDS011;23098;48.054;10.636;2023-04-25T12:41:07;1.50;;;0.95;;
37203;SDS011;23098;48.054;10.636;2023-04-25T12:43:33;1.70;;;1.23;;
37203;SDS011;23098;48.054;10.636;2023-04-25T12:45:59;0.80;;;0.75;;
37203;SDS011;23098;48.054;10.636;2023-04-25T12:48:25;1.45;;;1.35;;
37203;SDS011;23098;48.054;10.636;2023-04-25T12:50:51;1.70;;;1.50;;
37203;SDS011;23098;48.054;10.636;2023-04-25T12:53:17;1.48;;;1.30;;
37203;SDS011;23098;48.054;10.636;2023-04-25T12:55:44;2.53;;;1.70;;
37203;SDS011;23098;48.054;10.636;2023-04-25T12:58:11;1.60;;;1.50;;
37203;SDS011;23098;48.054;10.636;2023-04-25T13:00:41;1.58;;;1.30;;
37203;SDS011;23098;48.054;10.636;2023-04-25T13:03:07;1.45;;;1.30;;
37203;SDS011;23098;48.054;10.636;2023-04-25T13:05:33;1.02;;;0.60;;
37203;SDS011;23098;48.054;10.636;2023-04-25T13:07:58;1.65;;;1.20;;
37203;SDS011;23098;48.054;10.636;2023-04-25T13:10:24;1.65;;;1.30;;
37203;SDS011;23098;48.054;10.636;2023-04-25T13:12:50;1.10;;;1.00;;
37203;SDS011;23098;48.054;10.636;2023-04-25T13:15:15;1.60;;;1.20;;
37203;SDS011;23098;48.054;10.636;2023-04-25T13:17:41;2.55;;;1.10;;
37203;SDS011;23098;48.054;10.636;2023-04-25T13:20:07;1.38;;;1.00;;
37203;SDS011;23098;48.054;10.636;2023-04-25T13:22:40;1.23;;;1.05;;
37203;SDS011;23098;48.054;10.636;2023-04-25T13:25:07;1.05;;;0.90;;
37203;SDS011;23098;48.054;10.636;2023-04-25T13:27:34;1.08;;;0.98;;
37203;SDS011;23098;48.054;10.636;2023-04-25T13:30:00;5.28;;;3.53;;
37203;SDS011;23098;48.054;10.636;2023-04-25T13:32:31;1.10;;;1.00;;
37203;SDS011;23098;48.054;10.636;2023-04-25T13:34:58;2.47;;;1.05;;
37203;SDS011;23098;48.054;10.636;2023-04-25T13:37:24;1.35;;;0.70;;
37203;SDS011;23098;48.054;10.636;2023-04-25T13:39:50;0.60;;;0.60;;
37203;SDS011;23098;48.054;10.636;2023-04-25T13:42:16;1.55;;;0.80;;
37203;SDS011;23098;48.054;10.636;2023-04-25T13:44:41;1.25;;;0.90;;
37203;SDS011;23098;48.054;10.636;2023-04-25T13:47:07;3.00;;;0.77;;
37203;SDS011;23098;48.054;10.636;2023-04-25T13:49:32;0.68;;;0.60;;
37203;SDS011;23098;48.054;10.636;2023-04-25T13:51:58;0.50;;;0.50;;
37203;SDS011;23098;48.054;10.636;2023-04-25T13:54:24;0.80;;;0.70;;
37203;SDS011;23098;48.054;10.636;2023-04-25T13:56:49;1.02;;;0.75;;
37203;SDS011;23098;48.054;10.636;2023-04-25T13:59:15;0.40;;;0.40;;
37203;SDS011;23098;48.054;10.636;2023-04-25T14:01:41;1.02;;;0.50;;
37203;SDS011;23098;48.054;10.636;2023-04-25T14:04:06;3.50;;;0.70;;
37203;SDS011;23098;48.054;10.636;2023-04-25T14:06:32;0.85;;;0.30;;
37203;SDS011;23098;48.054;10.636;2023-04-25T14:08:58;0.40;;;0.40;;
37203;SDS011;23098;48.054;10.636;2023-04-25T14:11:25;0.43;;;0.40;;
37203;SDS011;23098;48.054;10.636;2023-04-25T14:13:51;0.38;;;0.38;;
37203;SDS011;23098;48.054;10.636;2023-04-25T14:16:17;0.30;;;0.30;;
37203;SDS011;23098;48.054;10.636;2023-04-25T14:18:42;0.20;;;0.20;;
37203;SDS011;23098;48.054;10.636;2023-04-25T14:21:08;0.30;;;0.30;;
37203;SDS011;23098;48.054;10.636;2023-04-25T14:23:34;0.30;;;0.30;;
37203;SDS011;23098;48.054;10.636;2023-04-25T14:26:00;0.40;;;0.38;;
37203;SDS011;23098;48.054;10.636;2023-04-25T14:28:26;0.30;;;0.30;;
37203;SDS011;23098;48.054;10.636;2023-04-25T14:30:52;0.65;;;0.40;;
37203;SDS011;23098;48.054;10.636;2023-04-25T14:33:17;0.40;;;0.40;;
37203;SDS011;23098;48.054;10.636;2023-04-25T14:35:43;0.38;;;0.38;;
37203;SDS011;23098;48.054;10.636;2023-04-25T14:38:10;0.50;;;0.50;;
37203;SDS011;23098;48.054;10.636;2023-04-25T14:40:36;0.60;;;0.60;;
37203;SDS011;23098;48.054;10.636;2023-04-25T14:43:03;0.50;;;0.50;;
37203;SDS011;23098;48.054;10.636;2023-04-25T14:45:29;1.77;;;0.80;;
37203;SDS011;23098;48.054;10.636;2023-04-25T14:47:55;1.27;;;1.00;;
37203;SDS011;23098;48.054;10.636;2023-04-25T14:50:20;1.83;;;0.93;;